Time;durP1;ratioP1;P1;durP2;ratioP2;P2;SDS_P1;SDS_P2;PMS_P1;PMS_P2;Temp;Humidity;BMP_temperature;BMP_pressure;BME280_temperature;BME280_humidity;BME280_pressure;Samples;Min_cycle;Max_cycle;Signal;HPM_P1;HPM_P2
2022/01/04 00:02:24;;;;;;;50.00;25.80;;;;;;;;;;5052167;28;20029;-68
2022/01/04 00:04:49;;;;;;;45.85;25.55;;;;;;;;;;5051307;28;20064;-67
2022/01/04 00:07:15;;;;;;;40.95;22.85;;;;;;;;;;5050987;28;20468;-68
2022/01/04 00:09:44;;;;;;;44.08;24.92;;;;;;;;;;5055663;28;20083;-68
2022/01/04 00:14:56;;;;;;;40.85;24.00;;;;;;;;;;5051644;28;20041;-69
2022/01/04 00:17:22;;;;;;;44.85;25.40;;;;;;;;;;5051776;28;20025;-70
2022/01/04 00:19:47;;;;;;;36.75;22.55;;;;;;;;;;5050819;28;20403;-69
2022/01/04 00:22:13;;;;;;;40.28;22.92;;;;;;;;;;5050646;28;20415;-70
2022/01/04 00:24:39;;;;;;;41.58;24.83;;;;;;;;;;5051252;28;20040;-67
2022/01/04 00:27:05;;;;;;;39.70;24.42;;;;;;;;;;5041727;28;20111;-67
2022/01/04 00:29:31;;;;;;;47.22;26.60;;;;;;;;;;5050024;28;20072;-69
2022/01/04 00:31:57;;;;;;;45.08;26.00;;;;;;;;;;5051486;28;20456;-68
2022/01/04 00:34:22;;;;;;;44.60;26.45;;;;;;;;;;5050675;28;20086;-70
2022/01/04 00:36:48;;;;;;;49.03;30.88;;;;;;;;;;5051396;28;20028;-68
2022/01/04 00:39:14;;;;;;;60.83;34.67;;;;;;;;;;5051151;28;20041;-69
2022/01/04 00:41:39;;;;;;;58.75;31.73;;;;;;;;;;5050628;28;20325;-68
2022/01/04 00:44:05;;;;;;;56.47;30.60;;;;;;;;;;5051712;28;20025;-67
2022/01/04 00:46:31;;;;;;;57.58;32.72;;;;;;;;;;5051272;28;20052;-67
2022/01/04 00:49:10;;;;;;;60.80;34.28;;;;;;;;;;5050769;28;20104;-65
2022/01/04 00:51:45;;;;;;;56.60;33.55;;;;;;;;;;5051093;28;20063;-66
2022/01/04 00:54:13;;;;;;;53.90;32.08;;;;;;;;;;5050966;28;20044;-66
2022/01/04 00:56:39;;;;;;;62.92;35.03;;;;;;;;;;5050981;28;20029;-67
2022/01/04 00:59:05;;;;;;;56.78;32.72;;;;;;;;;;5051303;28;20483;-66
2022/01/04 01:01:32;;;;;;;57.30;34.28;;;;;;;;;;5050984;28;20057;-65
2022/01/04 01:03:58;;;;;;;58.38;33.88;;;;;;;;;;5050972;28;20064;-67
2022/01/04 01:06:24;;;;;;;66.18;35.65;;;;;;;;;;5051000;28;20076;-67
2022/01/04 01:08:51;;;;;;;69.10;37.22;;;;;;;;;;5050801;28;20091;-65
2022/01/04 01:11:17;;;;;;;71.15;39.03;;;;;;;;;;5050411;28;20040;-67
2022/01/04 01:13:43;;;;;;;73.82;38.75;;;;;;;;;;5034915;28;20395;-66
2022/01/04 01:16:09;;;;;;;82.68;37.30;;;;;;;;;;5038776;28;20104;-66
2022/01/04 01:18:36;;;;;;;62.88;34.08;;;;;;;;;;5036942;28;20072;-66
2022/01/04 01:21:03;;;;;;;58.83;33.42;;;;;;;;;;5030753;28;20041;-67
2022/01/04 01:23:30;;;;;;;56.75;34.03;;;;;;;;;;5031034;28;20057;-67
2022/01/04 01:25:56;;;;;;;70.22;35.28;;;;;;;;;;5030415;28;20522;-67
2022/01/04 01:28:23;;;;;;;61.10;34.03;;;;;;;;;;5033338;28;20033;-66
2022/01/04 01:30:49;;;;;;;67.25;34.15;;;;;;;;;;5031055;28;20389;-66
2022/01/04 01:33:16;;;;;;;56.83;33.28;;;;;;;;;;5030872;28;20587;-67
2022/01/04 01:35:42;;;;;;;55.70;31.95;;;;;;;;;;5033778;28;20475;-66
2022/01/04 01:38:13;;;;;;;52.35;30.40;;;;;;;;;;5034340;28;20038;-66
2022/01/04 01:40:40;;;;;;;48.95;30.55;;;;;;;;;;5033885;28;20243;-66
2022/01/04 01:43:07;;;;;;;51.58;30.52;;;;;;;;;;5046995;28;20116;-66
2022/01/04 01:45:34;;;;;;;54.30;30.20;;;;;;;;;;5054916;28;20040;-66
2022/01/04 01:48:00;;;;;;;57.60;31.75;;;;;;;;;;5053925;28;20025;-67
2022/01/04 01:50:26;;;;;;;53.67;31.33;;;;;;;;;;5054336;28;20531;-67
2022/01/04 01:52:52;;;;;;;49.10;30.23;;;;;;;;;;5054010;28;20115;-66
2022/01/04 01:55:20;;;;;;;59.40;32.63;;;;;;;;;;5053676;28;20045;-66
2022/01/04 01:57:47;;;;;;;52.20;30.35;;;;;;;;;;5054307;28;20028;-67
2022/01/04 02:00:16;;;;;;;59.30;29.52;;;;;;;;;;5054172;28;20088;-65
2022/01/04 02:02:42;;;;;;;55.70;32.65;;;;;;;;;;5053829;28;20082;-66
2022/01/04 02:05:08;;;;;;;54.45;30.33;;;;;;;;;;5054120;28;20032;-67
2022/01/04 02:07:36;;;;;;;57.65;33.90;;;;;;;;;;5054035;28;20453;-67
2022/01/04 02:10:05;;;;;;;55.47;32.97;;;;;;;;;;5053790;28;20515;-68
2022/01/04 02:12:33;;;;;;;54.45;30.05;;;;;;;;;;5054236;28;20029;-66
2022/01/04 02:15:00;;;;;;;49.75;30.95;;;;;;;;;;5054064;28;20032;-66
2022/01/04 02:17:26;;;;;;;54.53;32.05;;;;;;;;;;5052937;28;20060;-67
2022/01/04 02:19:55;;;;;;;55.85;31.50;;;;;;;;;;5053678;28;20630;-68
2022/01/04 02:22:21;;;;;;;59.65;32.53;;;;;;;;;;5058878;28;20033;-67
2022/01/04 02:24:47;;;;;;;57.47;32.22;;;;;;;;;;5056983;28;20550;-66
2022/01/04 02:27:15;;;;;;;50.58;29.50;;;;;;;;;;5053761;28;20057;-66
2022/01/04 02:29:41;;;;;;;49.20;29.48;;;;;;;;;;5039411;28;20045;-67
2022/01/04 02:32:07;;;;;;;51.22;29.10;;;;;;;;;;5033246;28;20038;-67
2022/01/04 02:34:33;;;;;;;48.90;28.63;;;;;;;;;;5033537;28;20046;-66
2022/01/04 02:36:59;;;;;;;48.55;29.00;;;;;;;;;;5033525;28;20025;-67
2022/01/04 02:39:26;;;;;;;43.15;27.77;;;;;;;;;;5033424;28;20035;-67
2022/01/04 02:41:52;;;;;;;49.38;30.63;;;;;;;;;;5033703;28;20109;-67
2022/01/04 02:44:18;;;;;;;51.45;31.50;;;;;;;;;;5033337;28;20429;-67
2022/01/04 02:46:44;;;;;;;49.05;29.08;;;;;;;;;;5032527;28;20033;-65
2022/01/04 02:49:10;;;;;;;47.10;28.30;;;;;;;;;;5040060;28;20523;-67
2022/01/04 02:51:36;;;;;;;51.05;28.67;;;;;;;;;;5033309;28;20030;-66
2022/01/04 02:54:02;;;;;;;42.35;27.10;;;;;;;;;;5032825;28;20151;-67
2022/01/04 02:56:27;;;;;;;45.80;26.67;;;;;;;;;;5043749;28;20025;-67
2022/01/04 02:58:53;;;;;;;45.25;28.63;;;;;;;;;;5033017;28;20064;-66
2022/01/04 03:01:19;;;;;;;46.03;27.45;;;;;;;;;;5032558;28;20025;-67
2022/01/04 03:03:45;;;;;;;49.60;28.65;;;;;;;;;;5032016;28;20037;-69
2022/01/04 03:06:14;;;;;;;44.85;26.75;;;;;;;;;;5033333;28;20032;-67
2022/01/04 03:08:40;;;;;;;37.78;25.63;;;;;;;;;;5032655;28;20517;-67
2022/01/04 03:11:05;;;;;;;42.95;26.90;;;;;;;;;;5033095;28;20211;-67
2022/01/04 03:13:31;;;;;;;47.75;27.10;;;;;;;;;;5033191;28;20080;-67
2022/01/04 03:15:57;;;;;;;44.47;27.33;;;;;;;;;;5032680;28;20033;-67
2022/01/04 03:18:23;;;;;;;51.28;28.77;;;;;;;;;;5033066;28;20036;-67
2022/01/04 03:20:48;;;;;;;50.42;30.23;;;;;;;;;;5032516;28;20385;-67
2022/01/04 03:23:14;;;;;;;45.00;27.70;;;;;;;;;;5032507;28;20036;-67
2022/01/04 03:25:40;;;;;;;46.53;27.27;;;;;;;;;;5032597;28;20542;-67
2022/01/04 03:28:07;;;;;;;53.55;28.73;;;;;;;;;;5032691;28;20087;-67
2022/01/04 03:30:34;;;;;;;42.90;27.58;;;;;;;;;;5032250;28;20124;-67
2022/01/04 03:33:00;;;;;;;53.42;28.52;;;;;;;;;;5032501;28;20025;-67
2022/01/04 03:35:26;;;;;;;51.38;28.23;;;;;;;;;;5032158;28;20073;-67
2022/01/04 03:37:52;;;;;;;48.92;28.40;;;;;;;;;;5032453;28;20401;-67
2022/01/04 03:40:18;;;;;;;55.35;27.73;;;;;;;;;;5031644;28;20028;-66
2022/01/04 03:42:44;;;;;;;52.35;26.25;;;;;;;;;;5031691;28;20549;-68
2022/01/04 03:45:10;;;;;;;57.95;29.52;;;;;;;;;;5031898;28;20108;-66
2022/01/04 03:47:36;;;;;;;49.20;29.85;;;;;;;;;;5042784;28;20033;-67
2022/01/04 03:50:02;;;;;;;51.17;29.30;;;;;;;;;;5051885;28;20024;-65
2022/01/04 03:52:28;;;;;;;57.67;32.08;;;;;;;;;;5051895;28;20064;-66
2022/01/04 03:54:54;;;;;;;49.97;29.15;;;;;;;;;;5051495;28;20471;-66
2022/01/04 03:57:20;;;;;;;51.80;29.20;;;;;;;;;;5051403;28;20036;-65
2022/01/04 03:59:46;;;;;;;60.47;34.33;;;;;;;;;;5051724;28;20110;-67
2022/01/04 04:02:11;;;;;;;63.35;35.45;;;;;;;;;;5051837;28;20041;-67
2022/01/04 04:04:37;;;;;;;59.25;31.63;;;;;;;;;;5052007;28;20021;-66
2022/01/04 04:07:03;;;;;;;53.22;32.20;;;;;;;;;;5051633;28;20088;-66
2022/01/04 04:09:34;;;;;;;57.90;32.15;;;;;;;;;;5051315;28;20043;-66
2022/01/04 04:12:00;;;;;;;54.65;30.50;;;;;;;;;;5051148;28;20075;-67
2022/01/04 04:14:27;;;;;;;53.92;32.92;;;;;;;;;;5051787;28;20446;-67
2022/01/04 04:16:53;;;;;;;53.15;32.78;;;;;;;;;;5049984;28;20021;-67
2022/01/04 04:19:19;;;;;;;57.70;33.42;;;;;;;;;;5051172;28;20471;-68
2022/01/04 04:21:45;;;;;;;55.95;32.20;;;;;;;;;;5051588;28;20040;-66
2022/01/04 04:24:10;;;;;;;50.97;33.00;;;;;;;;;;5040867;28;20025;-66
2022/01/04 04:26:36;;;;;;;58.42;33.85;;;;;;;;;;5046806;28;20036;-66
2022/01/04 04:29:02;;;;;;;61.63;36.10;;;;;;;;;;5049952;28;20075;-65
2022/01/04 04:31:28;;;;;;;64.65;35.88;;;;;;;;;;5052445;28;20542;-66
2022/01/04 04:33:54;;;;;;;68.68;35.58;;;;;;;;;;5051079;28;20029;-67
2022/01/04 04:36:20;;;;;;;69.53;35.72;;;;;;;;;;5055308;28;20045;-66
2022/01/04 04:38:46;;;;;;;53.95;33.42;;;;;;;;;;5050905;28;20098;-66
2022/01/04 04:41:12;;;;;;;59.15;33.65;;;;;;;;;;5046178;28;20037;-66
2022/01/04 04:43:37;;;;;;;56.38;34.40;;;;;;;;;;5031417;28;20032;-67
2022/01/04 04:46:03;;;;;;;61.25;35.50;;;;;;;;;;5030877;28;20507;-66
2022/01/04 04:48:29;;;;;;;55.05;32.15;;;;;;;;;;5031279;28;20369;-67
2022/01/04 04:50:55;;;;;;;64.32;34.92;;;;;;;;;;5034586;28;20171;-66
2022/01/04 04:53:21;;;;;;;57.20;31.35;;;;;;;;;;5030420;28;20496;-68
2022/01/04 04:55:47;;;;;;;60.15;32.50;;;;;;;;;;5031142;28;20049;-68
2022/01/04 04:58:13;;;;;;;55.33;30.70;;;;;;;;;;5031048;28;20040;-66
2022/01/04 05:00:38;;;;;;;64.93;32.58;;;;;;;;;;5030480;28;20106;-67
2022/01/04 05:03:05;;;;;;;61.47;35.78;;;;;;;;;;5030834;28;20022;-67
2022/01/04 05:05:30;;;;;;;72.07;35.05;;;;;;;;;;5030813;28;20037;-66
2022/01/04 05:07:56;;;;;;;64.25;37.40;;;;;;;;;;5030060;28;20032;-66
2022/01/04 05:10:22;;;;;;;67.90;38.38;;;;;;;;;;5034826;28;20107;-66
2022/01/04 05:12:48;;;;;;;56.65;33.15;;;;;;;;;;5034959;28;20025;-67
2022/01/04 05:15:14;;;;;;;63.05;36.15;;;;;;;;;;5034610;28;20515;-66
2022/01/04 05:17:40;;;;;;;63.72;32.75;;;;;;;;;;5034470;28;20037;-66
2022/01/04 05:20:06;;;;;;;59.78;33.13;;;;;;;;;;5033019;28;20137;-66
2022/01/04 05:22:32;;;;;;;78.55;36.53;;;;;;;;;;5031495;28;20029;-65
2022/01/04 05:24:58;;;;;;;75.07;34.78;;;;;;;;;;5034237;28;20037;-68
2022/01/04 05:27:23;;;;;;;59.83;32.70;;;;;;;;;;5034672;28;20029;-66
2022/01/04 05:29:50;;;;;;;68.85;36.65;;;;;;;;;;5033427;28;20045;-67
2022/01/04 05:32:16;;;;;;;62.85;35.38;;;;;;;;;;5034310;28;20301;-66
2022/01/04 05:34:42;;;;;;;70.22;42.00;;;;;;;;;;5034262;28;20030;-67
2022/01/04 05:37:08;;;;;;;63.95;36.72;;;;;;;;;;5028617;28;20105;-66
2022/01/04 05:39:34;;;;;;;76.82;35.25;;;;;;;;;;5033360;28;20511;-67
2022/01/04 05:41:59;;;;;;;74.10;34.22;;;;;;;;;;5023784;28;20025;-67
2022/01/04 05:44:25;;;;;;;60.60;31.88;;;;;;;;;;5023114;28;20029;-68
2022/01/04 05:46:51;;;;;;;72.88;35.40;;;;;;;;;;5023532;28;20017;-69
2022/01/04 05:49:17;;;;;;;67.75;33.78;;;;;;;;;;5046683;28;20487;-72
2022/01/04 05:51:43;;;;;;;69.78;34.83;;;;;;;;;;5031951;28;20026;-71
2022/01/04 05:54:09;;;;;;;54.88;30.40;;;;;;;;;;5025066;28;20487;-71
2022/01/04 05:56:35;;;;;;;74.20;32.50;;;;;;;;;;5018645;28;20084;-72
2022/01/04 05:59:01;;;;;;;50.45;28.77;;;;;;;;;;5015423;28;20050;-71
2022/01/04 06:01:27;;;;;;;53.45;32.70;;;;;;;;;;5015561;28;20022;-73
2022/01/04 06:03:53;;;;;;;58.53;34.22;;;;;;;;;;5015321;28;20073;-72
2022/01/04 06:06:19;;;;;;;62.30;34.90;;;;;;;;;;5015153;28;20084;-72
2022/01/04 06:08:45;;;;;;;50.50;30.67;;;;;;;;;;5014723;28;20041;-73
2022/01/04 06:11:32;;;;;;;55.33;31.48;;;;;;;;;;5020386;28;20057;-71
2022/01/04 06:16:42;;;;;;;49.92;29.08;;;;;;;;;;5026144;28;20026;-77
2022/01/04 06:19:07;;;;;;;58.78;32.28;;;;;;;;;;5024939;28;20443;-72
2022/01/04 06:21:33;;;;;;;55.22;30.55;;;;;;;;;;5014541;28;20484;-72
2022/01/04 06:23:59;;;;;;;61.85;34.05;;;;;;;;;;5015020;28;20096;-71
2022/01/04 06:26:27;;;;;;;62.97;34.35;;;;;;;;;;5028671;28;20484;-76
2022/01/04 06:28:53;;;;;;;57.17;33.25;;;;;;;;;;5014799;28;20057;-72
2022/01/04 06:31:19;;;;;;;56.20;33.55;;;;;;;;;;5014456;28;20074;-76
2022/01/04 06:33:45;;;;;;;67.85;36.28;;;;;;;;;;5014368;28;20125;-73
2022/01/04 06:36:10;;;;;;;64.00;34.10;;;;;;;;;;5015652;28;20045;-71
2022/01/04 06:38:36;;;;;;;71.80;36.80;;;;;;;;;;5027635;28;20125;-75
2022/01/04 06:41:02;;;;;;;65.75;35.05;;;;;;;;;;5033661;28;20030;-72
2022/01/04 06:43:28;;;;;;;61.58;32.55;;;;;;;;;;5026143;28;20365;-75
2022/01/04 06:45:53;;;;;;;57.15;32.63;;;;;;;;;;5017961;28;20087;-72
2022/01/04 06:48:19;;;;;;;58.95;30.35;;;;;;;;;;5013914;28;20473;-73
2022/01/04 06:50:45;;;;;;;51.97;30.08;;;;;;;;;;5018852;28;20041;-73
2022/01/04 06:53:11;;;;;;;47.67;26.80;;;;;;;;;;5036063;28;20041;-72
2022/01/04 06:55:36;;;;;;;60.55;29.98;;;;;;;;;;5038799;28;20044;-74
2022/01/04 06:58:02;;;;;;;66.88;30.52;;;;;;;;;;5053481;28;20029;-73
2022/01/04 07:00:28;;;;;;;56.67;30.83;;;;;;;;;;5053800;28;20127;-73
2022/01/04 07:02:53;;;;;;;54.92;29.48;;;;;;;;;;5053539;28;20150;-74
2022/01/04 07:05:20;;;;;;;60.08;30.55;;;;;;;;;;5053110;28;20033;-74
2022/01/04 07:07:45;;;;;;;52.40;29.23;;;;;;;;;;5053678;28;20031;-72
2022/01/04 07:10:11;;;;;;;55.13;31.63;;;;;;;;;;5053413;28;20036;-72
2022/01/04 07:12:37;;;;;;;65.07;30.05;;;;;;;;;;5053337;28;20025;-72
2022/01/04 07:15:03;;;;;;;51.00;28.67;;;;;;;;;;5052414;28;20159;-73
2022/01/04 07:17:29;;;;;;;57.05;29.02;;;;;;;;;;5053002;28;20384;-73
2022/01/04 07:19:54;;;;;;;53.05;29.92;;;;;;;;;;5052873;28;20048;-71
2022/01/04 07:22:20;;;;;;;60.80;31.92;;;;;;;;;;5053393;28;20025;-72
2022/01/04 07:24:46;;;;;;;61.03;32.67;;;;;;;;;;5053169;28;20033;-71
2022/01/04 07:27:12;;;;;;;55.78;32.25;;;;;;;;;;5067252;28;20416;-71
2022/01/04 07:29:38;;;;;;;61.97;35.20;;;;;;;;;;5052875;28;20045;-72
2022/01/04 07:32:04;;;;;;;56.40;34.30;;;;;;;;;;5052157;28;20385;-72
2022/01/04 07:34:31;;;;;;;62.08;34.78;;;;;;;;;;5052998;28;20029;-72
2022/01/04 07:36:57;;;;;;;66.80;38.22;;;;;;;;;;5053112;28;20463;-72
2022/01/04 07:39:23;;;;;;;56.85;36.45;;;;;;;;;;5053275;28;20047;-71
2022/01/04 07:41:48;;;;;;;55.85;36.80;;;;;;;;;;5052904;28;20029;-72
2022/01/04 07:44:14;;;;;;;69.10;40.53;;;;;;;;;;5052831;28;20423;-71
2022/01/04 07:46:40;;;;;;;62.22;37.65;;;;;;;;;;5052949;28;20021;-72
2022/01/04 07:49:05;;;;;;;64.15;38.58;;;;;;;;;;5052986;28;20495;-73
2022/01/04 07:51:31;;;;;;;60.22;35.97;;;;;;;;;;5051353;28;20499;-71
2022/01/04 07:53:57;;;;;;;70.88;38.50;;;;;;;;;;5052742;28;20033;-73
2022/01/04 07:56:23;;;;;;;67.07;40.97;;;;;;;;;;5052171;28;20038;-70
2022/01/04 07:58:49;;;;;;;70.03;39.75;;;;;;;;;;5052510;28;20116;-72
2022/01/04 08:01:15;;;;;;;73.60;41.47;;;;;;;;;;5051041;28;20071;-72
2022/01/04 08:03:41;;;;;;;66.50;38.15;;;;;;;;;;5039647;28;20029;-76
2022/01/04 08:06:07;;;;;;;68.22;37.63;;;;;;;;;;5032338;28;20060;-73
2022/01/04 08:08:32;;;;;;;73.35;40.45;;;;;;;;;;5032672;28;20045;-68
2022/01/04 08:10:58;;;;;;;83.97;41.95;;;;;;;;;;5037836;28;20029;-71
2022/01/04 08:13:29;;;;;;;81.78;45.55;;;;;;;;;;5046320;28;20037;-73
2022/01/04 08:15:55;;;;;;;81.03;45.35;;;;;;;;;;5028296;28;20037;-71
2022/01/04 08:18:21;;;;;;;76.07;41.88;;;;;;;;;;5029111;28;20140;-69
2022/01/04 08:20:47;;;;;;;86.72;45.40;;;;;;;;;;5020698;28;20087;-70
2022/01/04 08:23:12;;;;;;;83.93;46.08;;;;;;;;;;5025720;28;20033;-69
2022/01/04 08:25:38;;;;;;;92.50;43.85;;;;;;;;;;5044420;28;20116;-72
2022/01/04 08:28:04;;;;;;;79.35;44.97;;;;;;;;;;5031197;28;20477;-71
2022/01/04 08:30:30;;;;;;;64.25;40.47;;;;;;;;;;5031345;28;20508;-72
2022/01/04 08:32:58;;;;;;;61.95;34.72;;;;;;;;;;5030145;28;20116;-75
2022/01/04 08:35:24;;;;;;;47.67;29.65;;;;;;;;;;5045709;28;20034;-72
2022/01/04 08:37:50;;;;;;;48.38;29.52;;;;;;;;;;5016036;28;20022;-70
2022/01/04 08:40:16;;;;;;;32.30;21.52;;;;;;;;;;5018386;28;20056;-69
2022/01/04 08:42:42;;;;;;;39.30;24.17;;;;;;;;;;5012781;28;20040;-69
2022/01/04 08:45:09;;;;;;;34.65;18.95;;;;;;;;;;5017589;28;20030;-71
2022/01/04 08:47:34;;;;;;;42.05;20.35;;;;;;;;;;5016036;28;20049;-71
2022/01/04 08:50:01;;;;;;;28.15;18.13;;;;;;;;;;5016974;28;20569;-73
2022/01/04 08:52:27;;;;;;;31.25;19.40;;;;;;;;;;5017061;28;20030;-72
2022/01/04 08:54:53;;;;;;;34.88;21.20;;;;;;;;;;5016398;28;20057;-72
2022/01/04 08:57:18;;;;;;;35.00;21.67;;;;;;;;;;5016214;28;20030;-70
2022/01/04 08:59:47;;;;;;;30.83;20.60;;;;;;;;;;5018910;28;20046;-73
2022/01/04 09:02:13;;;;;;;29.77;19.95;;;;;;;;;;5017930;28;20026;-71
2022/01/04 09:04:38;;;;;;;32.17;20.77;;;;;;;;;;5018122;28;20026;-73
2022/01/04 09:07:04;;;;;;;31.75;20.70;;;;;;;;;;5018303;28;20021;-71
2022/01/04 09:09:30;;;;;;;30.08;20.70;;;;;;;;;;5016908;28;20030;-73
2022/01/04 09:11:56;;;;;;;30.23;19.85;;;;;;;;;;5018113;28;20025;-74
2022/01/04 09:14:40;;;;;;;35.33;20.40;;;;;;;;;;5018245;28;20022;-71
2022/01/04 09:19:53;;;;;;;26.55;18.33;;;;;;;;;;5058243;28;20415;-70
2022/01/04 09:22:19;;;;;;;28.90;18.92;;;;;;;;;;5058251;28;20025;-70
2022/01/04 09:24:45;;;;;;;31.10;20.25;;;;;;;;;;5057708;28;20082;-71
2022/01/04 09:27:11;;;;;;;31.75;21.30;;;;;;;;;;5057814;28;20469;-71
2022/01/04 09:29:36;;;;;;;37.53;22.50;;;;;;;;;;5057984;28;20080;-70
2022/01/04 09:32:04;;;;;;;30.80;21.15;;;;;;;;;;5057753;28;20067;-68
2022/01/04 09:34:30;;;;;;;29.05;19.38;;;;;;;;;;5057876;28;20032;-70
2022/01/04 09:36:56;;;;;;;35.28;19.85;;;;;;;;;;5057330;28;20073;-71
2022/01/04 09:39:24;;;;;;;31.77;21.08;;;;;;;;;;5057389;28;20369;-70
2022/01/04 09:41:51;;;;;;;36.45;21.65;;;;;;;;;;5058285;28;20384;-69
2022/01/04 09:44:17;;;;;;;36.10;21.58;;;;;;;;;;5057551;28;20024;-69
2022/01/04 09:46:43;;;;;;;30.48;21.05;;;;;;;;;;5057679;28;20219;-70
2022/01/04 09:49:11;;;;;;;32.00;21.25;;;;;;;;;;5057555;28;20033;-69
2022/01/04 09:51:39;;;;;;;35.42;21.83;;;;;;;;;;5056057;28;20025;-71
2022/01/04 09:54:05;;;;;;;31.58;20.98;;;;;;;;;;5056936;28;20029;-72
2022/01/04 09:56:31;;;;;;;33.22;21.52;;;;;;;;;;5053875;28;20108;-71
2022/01/04 09:58:57;;;;;;;30.85;19.92;;;;;;;;;;5054291;28;20108;-70
2022/01/04 10:01:32;;;;;;;32.50;21.05;;;;;;;;;;5054061;28;20440;-70
2022/01/04 10:03:58;;;;;;;32.70;21.27;;;;;;;;;;5054298;28;20056;-70
2022/01/04 10:06:25;;;;;;;33.95;23.58;;;;;;;;;;5054231;28;20025;-69
2022/01/04 10:09:08;;;;;;;38.83;23.20;;;;;;;;;;5055940;28;20031;-70
2022/01/04 10:11:42;;;;;;;35.28;22.70;;;;;;;;;;5055915;28;20035;-70
2022/01/04 10:14:29;;;;;;;32.78;22.42;;;;;;;;;;5053882;28;20068;-68
2022/01/04 10:16:57;;;;;;;33.83;22.58;;;;;;;;;;5043815;28;20029;-69
2022/01/04 10:19:48;;;;;;;36.47;23.65;;;;;;;;;;5029233;28;20405;-70
2022/01/04 10:22:23;;;;;;;32.97;21.88;;;;;;;;;;5025830;28;20045;-71
2022/01/04 10:25:03;;;;;;;33.22;22.45;;;;;;;;;;5028901;28;20123;-69
2022/01/04 10:27:42;;;;;;;34.95;22.23;;;;;;;;;;5023519;28;20029;-70
2022/01/04 10:30:20;;;;;;;32.05;21.90;;;;;;;;;;5025763;28;20049;-74
2022/01/04 10:33:05;;;;;;;34.70;22.58;;;;;;;;;;5014296;28;20117;-72
2022/01/04 10:35:35;;;;;;;35.17;22.20;;;;;;;;;;5014087;28;20034;-70
2022/01/04 10:38:13;;;;;;;32.03;22.15;;;;;;;;;;5014553;28;20025;-75
2022/01/04 10:40:44;;;;;;;32.28;21.20;;;;;;;;;;5019857;28;20493;-71
2022/01/04 10:43:19;;;;;;;34.03;20.88;;;;;;;;;;5027188;28;20022;-71
2022/01/04 10:45:45;;;;;;;34.90;22.45;;;;;;;;;;5020709;28;20091;-75
2022/01/04 10:48:19;;;;;;;33.80;22.63;;;;;;;;;;5023449;28;20021;-71
2022/01/04 10:51:07;;;;;;;35.17;21.83;;;;;;;;;;5029776;28;20140;-73
2022/01/04 10:54:06;;;;;;;36.72;22.92;;;;;;;;;;5029974;28;20045;-70
2022/01/04 10:56:33;;;;;;;33.45;21.88;;;;;;;;;;5031889;28;20480;-71
2022/01/04 10:59:06;;;;;;;34.83;21.77;;;;;;;;;;5032196;28;20467;-71
2022/01/04 11:01:46;;;;;;;36.45;21.63;;;;;;;;;;5031812;28;20037;-69
2022/01/04 11:04:17;;;;;;;33.05;20.90;;;;;;;;;;5033031;28;20132;-69
2022/01/04 11:06:44;;;;;;;45.35;23.60;;;;;;;;;;5047511;28;20117;-72
2022/01/04 11:09:11;;;;;;;32.72;21.95;;;;;;;;;;5031945;28;20087;-69
2022/01/04 11:11:38;;;;;;;31.05;20.70;;;;;;;;;;5032858;28;20033;-69
2022/01/04 11:14:04;;;;;;;34.30;22.13;;;;;;;;;;5068138;28;20380;-71
2022/01/04 11:16:31;;;;;;;36.50;20.70;;;;;;;;;;5051839;28;20465;-70
2022/01/04 11:18:58;;;;;;;29.38;21.17;;;;;;;;;;5050034;28;20028;-70
2022/01/04 11:21:31;;;;;;;35.58;21.15;;;;;;;;;;5044567;28;20045;-69
2022/01/04 11:24:01;;;;;;;34.75;21.70;;;;;;;;;;5021706;28;20030;-69
2022/01/04 11:26:27;;;;;;;31.15;20.98;;;;;;;;;;5011596;28;20028;-69
2022/01/04 11:28:54;;;;;;;32.20;22.25;;;;;;;;;;5031057;28;20038;-71
2022/01/04 11:31:44;;;;;;;32.40;21.23;;;;;;;;;;5031708;28;20492;-69
2022/01/04 11:34:11;;;;;;;35.83;23.70;;;;;;;;;;5032785;28;20033;-69
2022/01/04 11:36:47;;;;;;;46.60;25.65;;;;;;;;;;5032882;28;20425;-70
2022/01/04 11:39:41;;;;;;;37.78;24.55;;;;;;;;;;5032585;28;20135;-69
2022/01/04 11:42:13;;;;;;;33.33;23.05;;;;;;;;;;5029174;28;20041;-69
2022/01/04 11:44:59;;;;;;;32.70;22.88;;;;;;;;;;5014073;28;20108;-71
2022/01/04 11:47:28;;;;;;;36.45;24.92;;;;;;;;;;5032282;28;20112;-68
2022/01/04 11:50:20;;;;;;;36.40;25.73;;;;;;;;;;5032550;28;20060;-70
2022/01/04 11:52:47;;;;;;;39.58;25.13;;;;;;;;;;5032185;28;20108;-70
2022/01/04 11:55:16;;;;;;;40.00;26.50;;;;;;;;;;5032540;28;20473;-70
2022/01/04 11:57:42;;;;;;;38.05;25.77;;;;;;;;;;5032352;28;20401;-71
2022/01/04 12:00:07;;;;;;;35.88;23.63;;;;;;;;;;5032248;28;20112;-71
2022/01/04 12:02:40;;;;;;;39.00;26.38;;;;;;;;;;5026093;28;20034;-69
2022/01/04 12:05:22;;;;;;;50.10;26.55;;;;;;;;;;5018932;28;20022;-68
2022/01/04 12:07:49;;;;;;;37.65;25.58;;;;;;;;;;5011332;28;20432;-69
2022/01/04 12:10:36;;;;;;;40.28;28.83;;;;;;;;;;5011004;28;20026;-72
2022/01/04 12:13:19;;;;;;;40.67;27.77;;;;;;;;;;5011291;28;20500;-70
2022/01/04 12:15:54;;;;;;;39.57;26.43;;;;;;;;;;5011862;28;20446;-71
2022/01/04 12:18:33;;;;;;;40.38;27.30;;;;;;;;;;5011632;28;20766;-70
2022/01/04 12:21:01;;;;;;;47.97;29.27;;;;;;;;;;5012400;28;20084;-71
2022/01/04 12:23:27;;;;;;;42.85;28.52;;;;;;;;;;5011856;28;20026;-69
2022/01/04 12:29:05;;;;;;;39.30;27.05;;;;;;;;;;5012454;28;20041;-71
2022/01/04 12:31:35;;;;;;;40.22;25.70;;;;;;;;;;5012037;28;20416;-68
2022/01/04 12:34:37;;;;;;;41.95;26.88;;;;;;;;;;5012075;28;20551;-70
2022/01/04 12:37:06;;;;;;;46.88;27.25;;;;;;;;;;5011541;28;20547;-73
2022/01/04 12:39:42;;;;;;;39.75;27.15;;;;;;;;;;5012255;28;20124;-70
2022/01/04 12:42:10;;;;;;;43.55;28.05;;;;;;;;;;5012488;28;20045;-70
2022/01/04 12:44:37;;;;;;;43.80;29.80;;;;;;;;;;5012599;28;20030;-72
2022/01/04 12:47:04;;;;;;;39.17;26.67;;;;;;;;;;5013749;28;20125;-74
2022/01/04 12:49:32;;;;;;;43.70;26.85;;;;;;;;;;5010731;28;20477;-68
2022/01/04 12:52:06;;;;;;;33.38;23.92;;;;;;;;;;5011881;28;20504;-69
2022/01/04 12:54:41;;;;;;;37.17;24.35;;;;;;;;;;5012466;28;20441;-68
2022/01/04 12:57:11;;;;;;;37.97;23.05;;;;;;;;;;5012409;28;20033;-69
2022/01/04 12:59:40;;;;;;;35.35;23.02;;;;;;;;;;5012201;28;20033;-71
2022/01/04 13:02:12;;;;;;;38.45;23.27;;;;;;;;;;5012292;28;20022;-69
2022/01/04 13:04:39;;;;;;;34.83;21.92;;;;;;;;;;5012129;28;20022;-70
2022/01/04 13:07:26;;;;;;;31.45;20.40;;;;;;;;;;5012156;28;20443;-69
2022/01/04 13:09:55;;;;;;;32.60;19.05;;;;;;;;;;5012250;28;20104;-69
2022/01/04 13:12:26;;;;;;;26.23;18.27;;;;;;;;;;5012330;28;20325;-69
2022/01/04 13:14:53;;;;;;;27.52;19.33;;;;;;;;;;5012336;28;20069;-68
2022/01/04 13:17:19;;;;;;;26.92;18.00;;;;;;;;;;5012204;28;20430;-69
2022/01/04 13:19:46;;;;;;;28.08;17.92;;;;;;;;;;5012449;28;20065;-71
2022/01/04 13:22:15;;;;;;;26.10;18.92;;;;;;;;;;5012353;28;20490;-70
2022/01/04 13:24:44;;;;;;;23.48;15.93;;;;;;;;;;5023825;28;20086;-70
2022/01/04 13:27:23;;;;;;;21.70;13.70;;;;;;;;;;5031511;28;20022;-69
2022/01/04 13:29:53;;;;;;;22.73;15.32;;;;;;;;;;5031719;28;20068;-70
2022/01/04 13:32:34;;;;;;;22.27;14.85;;;;;;;;;;5050228;28;20171;-70
2022/01/04 13:35:05;;;;;;;23.63;15.50;;;;;;;;;;5035000;28;20042;-71
2022/01/04 13:37:32;;;;;;;22.15;14.10;;;;;;;;;;5035663;28;20384;-70
2022/01/04 13:39:58;;;;;;;21.90;13.35;;;;;;;;;;5035152;28;20030;-69
2022/01/04 13:42:35;;;;;;;24.85;15.43;;;;;;;;;;5035081;28;20361;-69
2022/01/04 13:45:17;;;;;;;24.50;14.93;;;;;;;;;;5034959;28;20033;-69
2022/01/04 13:47:49;;;;;;;20.92;14.88;;;;;;;;;;5035253;28;20128;-70
2022/01/04 13:50:37;;;;;;;24.38;15.07;;;;;;;;;;5035338;28;20044;-70
2022/01/04 13:53:15;;;;;;;18.50;13.30;;;;;;;;;;5034991;28;20029;-71
2022/01/04 13:55:58;;;;;;;24.42;15.93;;;;;;;;;;5035177;28;20036;-69
2022/01/04 13:58:32;;;;;;;24.80;14.93;;;;;;;;;;5034667;28;20037;-69
2022/01/04 14:00:58;;;;;;;21.10;14.43;;;;;;;;;;5034056;28;20037;-72
2022/01/04 14:03:30;;;;;;;19.77;12.23;;;;;;;;;;5046267;28;20036;-69
2022/01/04 14:05:57;;;;;;;12.98;8.93;;;;;;;;;;5013761;28;20041;-71
2022/01/04 14:08:48;;;;;;;18.00;9.93;;;;;;;;;;5015252;28;20057;-71
2022/01/04 14:11:25;;;;;;;18.88;11.75;;;;;;;;;;5015236;28;20116;-73
2022/01/04 14:13:52;;;;;;;15.32;10.20;;;;;;;;;;5015219;28;20044;-71
2022/01/04 14:16:19;;;;;;;10.88;6.32;;;;;;;;;;5027340;28;20392;-69
2022/01/04 14:19:06;;;;;;;11.45;7.13;;;;;;;;;;5034522;28;20033;-70
2022/01/04 14:21:44;;;;;;;9.68;6.97;;;;;;;;;;5035224;28;20419;-70
2022/01/04 14:24:39;;;;;;;10.13;5.82;;;;;;;;;;5034674;28;20120;-70
2022/01/04 14:27:06;;;;;;;8.40;5.05;;;;;;;;;;5040499;28;20606;-71
2022/01/04 14:29:44;;;;;;;8.18;4.95;;;;;;;;;;5054398;28;20028;-71
2022/01/04 14:32:12;;;;;;;16.45;6.72;;;;;;;;;;5054056;28;20045;-73
2022/01/04 14:34:38;;;;;;;7.93;4.93;;;;;;;;;;5054467;28;20047;-71
2022/01/04 14:37:05;;;;;;;10.25;5.50;;;;;;;;;;5054393;28;20044;-72
2022/01/04 14:39:32;;;;;;;11.23;7.22;;;;;;;;;;5054362;28;20017;-73